ACB weather

Antrim County Airport
Bellaire, Michigan, United States

Public forecast

Using degrees Fahrenheit for public forecast. Weather courtesy of forecast.io.

Current aviation weather report (METAR) for Antrim County Airport

Retrieved 2019/10/19 05:35 UTC (0 seconds ago):

KACB 190535Z AUTO 00000KT 10SM CLR 07/03 A2997 RMK AO2 T00690033

Closest aviation forecast (TAF) to Antrim County Airport

Closest forecast is Cherry Capital Airport, 22.1 nm (40.9 km) SW. Retrieved 2019-10-19 00:22 UTC (5 hours ago):

TAF KTVC 182320Z 1900/1924 VRB03KT P6SM SCT250 FM191500 16008KT P6SM SCT120 BKN200